sensor_id;sensor_type;location;lat;lon;timestamp;P1;durP1;ratioP1;P2;durP2;ratioP2
7193;SDS011;3638;48.820;9.244;2022-10-17T00:00:19;9.03;;;5.27;;
7193;SDS011;3638;48.820;9.244;2022-10-17T00:02:46;6.70;;;5.50;;
7193;SDS011;3638;48.820;9.244;2022-10-17T00:05:13;8.53;;;5.27;;
7193;SDS011;3638;48.820;9.244;2022-10-17T00:07:42;6.43;;;4.83;;
7193;SDS011;3638;48.820;9.244;2022-10-17T00:10:09;7.77;;;5.40;;
7193;SDS011;3638;48.820;9.244;2022-10-17T00:12:36;6.70;;;5.37;;
7193;SDS011;3638;48.820;9.244;2022-10-17T00:15:04;7.43;;;5.50;;
7193;SDS011;3638;48.820;9.244;2022-10-17T00:17:33;5.90;;;5.30;;
7193;SDS011;3638;48.820;9.244;2022-10-17T00:20:00;8.87;;;5.80;;
7193;SDS011;3638;48.820;9.244;2022-10-17T00:22:27;10.50;;;6.83;;
7193;SDS011;3638;48.820;9.244;2022-10-17T00:24:55;9.33;;;6.70;;
7193;SDS011;3638;48.820;9.244;2022-10-17T00:27:22;8.93;;;6.63;;
7193;SDS011;3638;48.820;9.244;2022-10-17T00:29:50;8.77;;;7.43;;
7193;SDS011;3638;48.820;9.244;2022-10-17T00:32:17;10.83;;;7.43;;
7193;SDS011;3638;48.820;9.244;2022-10-17T00:34:46;8.23;;;6.80;;
7193;SDS011;3638;48.820;9.244;2022-10-17T00:37:13;9.13;;;6.50;;
7193;SDS011;3638;48.820;9.244;2022-10-17T00:39:39;10.97;;;6.53;;
7193;SDS011;3638;48.820;9.244;2022-10-17T00:42:09;7.77;;;6.80;;
7193;SDS011;3638;48.820;9.244;2022-10-17T00:44:57;9.90;;;7.17;;
7193;SDS011;3638;48.820;9.244;2022-10-17T00:47:30;8.60;;;6.67;;
7193;SDS011;3638;48.820;9.244;2022-10-17T00:49:58;8.93;;;6.37;;
7193;SDS011;3638;48.820;9.244;2022-10-17T00:52:26;9.17;;;7.10;;
7193;SDS011;3638;48.820;9.244;2022-10-17T00:54:55;7.70;;;6.90;;
7193;SDS011;3638;48.820;9.244;2022-10-17T00:57:28;10.93;;;6.57;;
7193;SDS011;3638;48.820;9.244;2022-10-17T00:59:56;9.80;;;6.30;;
7193;SDS011;3638;48.820;9.244;2022-10-17T01:02:25;11.43;;;6.23;;
7193;SDS011;3638;48.820;9.244;2022-10-17T01:04:52;11.17;;;6.80;;
7193;SDS011;3638;48.820;9.244;2022-10-17T01:07:23;13.17;;;7.57;;
7193;SDS011;3638;48.820;9.244;2022-10-17T01:09:51;13.60;;;6.90;;
7193;SDS011;3638;48.820;9.244;2022-10-17T01:12:19;12.63;;;6.53;;
7193;SDS011;3638;48.820;9.244;2022-10-17T01:14:56;9.23;;;6.70;;
7193;SDS011;3638;48.820;9.244;2022-10-17T01:17:32;11.13;;;7.30;;
7193;SDS011;3638;48.820;9.244;2022-10-17T01:20:23;10.43;;;6.57;;
7193;SDS011;3638;48.820;9.244;2022-10-17T01:23:26;11.23;;;6.70;;
7193;SDS011;3638;48.820;9.244;2022-10-17T01:26:13;10.27;;;6.90;;
7193;SDS011;3638;48.820;9.244;2022-10-17T01:28:55;10.60;;;6.77;;
7193;SDS011;3638;48.820;9.244;2022-10-17T01:31:41;12.07;;;6.47;;
7193;SDS011;3638;48.820;9.244;2022-10-17T01:34:13;11.90;;;7.30;;
7193;SDS011;3638;48.820;9.244;2022-10-17T01:36:47;10.30;;;6.60;;
7193;SDS011;3638;48.820;9.244;2022-10-17T01:39:21;10.30;;;7.37;;
7193;SDS011;3638;48.820;9.244;2022-10-17T01:42:09;10.70;;;7.00;;
7193;SDS011;3638;48.820;9.244;2022-10-17T01:44:41;12.17;;;7.47;;
7193;SDS011;3638;48.820;9.244;2022-10-17T01:47:16;14.03;;;6.87;;
7193;SDS011;3638;48.820;9.244;2022-10-17T01:49:47;10.33;;;6.60;;
7193;SDS011;3638;48.820;9.244;2022-10-17T01:52:18;9.53;;;6.83;;
7193;SDS011;3638;48.820;9.244;2022-10-17T01:54:50;11.77;;;6.87;;
7193;SDS011;3638;48.820;9.244;2022-10-17T01:57:21;11.90;;;6.43;;
7193;SDS011;3638;48.820;9.244;2022-10-17T01:59:54;11.13;;;6.30;;
7193;SDS011;3638;48.820;9.244;2022-10-17T02:02:24;10.77;;;6.50;;
7193;SDS011;3638;48.820;9.244;2022-10-17T02:04:52;11.33;;;6.70;;
7193;SDS011;3638;48.820;9.244;2022-10-17T02:07:22;7.77;;;6.23;;
7193;SDS011;3638;48.820;9.244;2022-10-17T02:09:49;8.80;;;6.20;;
7193;SDS011;3638;48.820;9.244;2022-10-17T02:12:26;11.53;;;6.40;;
7193;SDS011;3638;48.820;9.244;2022-10-17T02:18:23;9.13;;;5.70;;
7193;SDS011;3638;48.820;9.244;2022-10-17T02:21:07;10.90;;;6.10;;
7193;SDS011;3638;48.820;9.244;2022-10-17T02:23:41;8.07;;;5.97;;
7193;SDS011;3638;48.820;9.244;2022-10-17T02:26:18;8.17;;;6.10;;
7193;SDS011;3638;48.820;9.244;2022-10-17T02:28:52;8.97;;;5.90;;
7193;SDS011;3638;48.820;9.244;2022-10-17T02:31:29;8.70;;;5.90;;
7193;SDS011;3638;48.820;9.244;2022-10-17T02:34:01;11.27;;;5.80;;
7193;SDS011;3638;48.820;9.244;2022-10-17T02:36:35;9.03;;;5.97;;
7193;SDS011;3638;48.820;9.244;2022-10-17T02:39:06;9.97;;;6.03;;
7193;SDS011;3638;48.820;9.244;2022-10-17T02:41:35;13.43;;;5.97;;
7193;SDS011;3638;48.820;9.244;2022-10-17T02:44:04;7.43;;;6.10;;
7193;SDS011;3638;48.820;9.244;2022-10-17T02:46:33;8.73;;;5.90;;
7193;SDS011;3638;48.820;9.244;2022-10-17T02:49:04;8.27;;;6.40;;
7193;SDS011;3638;48.820;9.244;2022-10-17T02:51:39;8.57;;;5.80;;
7193;SDS011;3638;48.820;9.244;2022-10-17T02:54:11;8.03;;;5.67;;
7193;SDS011;3638;48.820;9.244;2022-10-17T02:56:45;9.07;;;5.97;;
7193;SDS011;3638;48.820;9.244;2022-10-17T02:59:19;9.57;;;5.83;;
7193;SDS011;3638;48.820;9.244;2022-10-17T03:01:48;11.03;;;5.27;;
7193;SDS011;3638;48.820;9.244;2022-10-17T03:04:17;15.20;;;7.27;;
7193;SDS011;3638;48.820;9.244;2022-10-17T03:06:45;14.47;;;5.83;;
7193;SDS011;3638;48.820;9.244;2022-10-17T03:09:13;8.10;;;5.80;;
7193;SDS011;3638;48.820;9.244;2022-10-17T03:11:40;12.50;;;5.73;;
7193;SDS011;3638;48.820;9.244;2022-10-17T03:14:07;9.77;;;6.00;;
7193;SDS011;3638;48.820;9.244;2022-10-17T03:16:34;9.57;;;5.63;;
7193;SDS011;3638;48.820;9.244;2022-10-17T03:19:01;10.83;;;5.70;;
7193;SDS011;3638;48.820;9.244;2022-10-17T03:21:30;10.77;;;6.33;;
7193;SDS011;3638;48.820;9.244;2022-10-17T03:23:57;8.97;;;5.87;;
7193;SDS011;3638;48.820;9.244;2022-10-17T03:26:23;8.77;;;5.67;;
7193;SDS011;3638;48.820;9.244;2022-10-17T03:28:50;8.70;;;5.87;;
7193;SDS011;3638;48.820;9.244;2022-10-17T03:31:17;6.73;;;5.80;;
7193;SDS011;3638;48.820;9.244;2022-10-17T03:33:44;8.53;;;6.13;;
7193;SDS011;3638;48.820;9.244;2022-10-17T03:36:12;7.40;;;5.90;;
7193;SDS011;3638;48.820;9.244;2022-10-17T03:38:42;8.07;;;5.60;;
7193;SDS011;3638;48.820;9.244;2022-10-17T03:41:10;11.77;;;6.20;;
7193;SDS011;3638;48.820;9.244;2022-10-17T03:43:37;9.93;;;6.67;;
7193;SDS011;3638;48.820;9.244;2022-10-17T03:46:05;13.00;;;6.77;;
7193;SDS011;3638;48.820;9.244;2022-10-17T03:48:32;9.20;;;6.33;;
7193;SDS011;3638;48.820;9.244;2022-10-17T03:51:00;9.27;;;6.47;;
7193;SDS011;3638;48.820;9.244;2022-10-17T03:53:29;8.70;;;6.53;;
7193;SDS011;3638;48.820;9.244;2022-10-17T03:56:07;9.77;;;5.60;;
7193;SDS011;3638;48.820;9.244;2022-10-17T03:58:35;8.87;;;5.37;;
7193;SDS011;3638;48.820;9.244;2022-10-17T04:01:03;8.63;;;5.50;;
7193;SDS011;3638;48.820;9.244;2022-10-17T04:03:30;6.60;;;5.27;;
7193;SDS011;3638;48.820;9.244;2022-10-17T04:05:58;8.33;;;5.53;;
7193;SDS011;3638;48.820;9.244;2022-10-17T04:08:25;8.80;;;5.47;;
7193;SDS011;3638;48.820;9.244;2022-10-17T04:10:57;6.23;;;5.30;;
7193;SDS011;3638;48.820;9.244;2022-10-17T04:13:25;7.37;;;5.80;;
7193;SDS011;3638;48.820;9.244;2022-10-17T04:15:54;8.60;;;5.63;;
7193;SDS011;3638;48.820;9.244;2022-10-17T04:18:21;8.10;;;6.00;;
7193;SDS011;3638;48.820;9.244;2022-10-17T04:20:49;7.23;;;5.07;;
7193;SDS011;3638;48.820;9.244;2022-10-17T04:23:16;14.10;;;6.07;;
7193;SDS011;3638;48.820;9.244;2022-10-17T04:25:43;8.03;;;5.70;;
7193;SDS011;3638;48.820;9.244;2022-10-17T04:28:11;9.43;;;5.80;;
7193;SDS011;3638;48.820;9.244;2022-10-17T04:30:38;7.43;;;5.27;;
7193;SDS011;3638;48.820;9.244;2022-10-17T04:33:06;7.90;;;5.53;;
7193;SDS011;3638;48.820;9.244;2022-10-17T04:35:33;9.77;;;5.53;;
7193;SDS011;3638;48.820;9.244;2022-10-17T04:38:00;9.53;;;5.10;;
7193;SDS011;3638;48.820;9.244;2022-10-17T04:40:26;8.47;;;5.67;;
7193;SDS011;3638;48.820;9.244;2022-10-17T04:42:53;5.60;;;5.00;;
7193;SDS011;3638;48.820;9.244;2022-10-17T04:45:22;5.83;;;5.03;;
7193;SDS011;3638;48.820;9.244;2022-10-17T04:47:49;5.73;;;4.73;;
7193;SDS011;3638;48.820;9.244;2022-10-17T04:50:16;9.87;;;6.07;;
7193;SDS011;3638;48.820;9.244;2022-10-17T04:52:43;6.53;;;5.83;;
7193;SDS011;3638;48.820;9.244;2022-10-17T04:55:10;8.97;;;5.77;;
7193;SDS011;3638;48.820;9.244;2022-10-17T04:57:37;8.33;;;6.30;;
7193;SDS011;3638;48.820;9.244;2022-10-17T05:00:04;9.37;;;6.17;;
7193;SDS011;3638;48.820;9.244;2022-10-17T05:02:34;9.67;;;6.87;;
7193;SDS011;3638;48.820;9.244;2022-10-17T05:05:01;10.43;;;6.43;;
7193;SDS011;3638;48.820;9.244;2022-10-17T05:07:29;7.27;;;6.20;;
7193;SDS011;3638;48.820;9.244;2022-10-17T05:09:56;8.23;;;6.80;;
7193;SDS011;3638;48.820;9.244;2022-10-17T05:12:23;10.17;;;5.97;;
7193;SDS011;3638;48.820;9.244;2022-10-17T05:14:50;9.83;;;6.60;;
7193;SDS011;3638;48.820;9.244;2022-10-17T05:17:17;8.83;;;6.13;;
7193;SDS011;3638;48.820;9.244;2022-10-17T05:19:45;10.80;;;6.13;;
7193;SDS011;3638;48.820;9.244;2022-10-17T05:22:12;6.70;;;5.33;;
7193;SDS011;3638;48.820;9.244;2022-10-17T05:24:39;9.10;;;6.63;;
7193;SDS011;3638;48.820;9.244;2022-10-17T05:27:06;7.50;;;5.77;;
7193;SDS011;3638;48.820;9.244;2022-10-17T05:29:33;8.07;;;5.53;;
7193;SDS011;3638;48.820;9.244;2022-10-17T05:32:00;11.60;;;5.57;;
7193;SDS011;3638;48.820;9.244;2022-10-17T05:34:27;9.87;;;5.17;;
7193;SDS011;3638;48.820;9.244;2022-10-17T05:36:55;8.63;;;5.43;;
7193;SDS011;3638;48.820;9.244;2022-10-17T05:39:22;6.10;;;4.90;;
7193;SDS011;3638;48.820;9.244;2022-10-17T05:41:49;7.73;;;5.07;;
7193;SDS011;3638;48.820;9.244;2022-10-17T05:44:16;9.93;;;5.10;;
7193;SDS011;3638;48.820;9.244;2022-10-17T05:46:43;7.87;;;4.60;;
7193;SDS011;3638;48.820;9.244;2022-10-17T05:49:12;7.00;;;4.93;;
7193;SDS011;3638;48.820;9.244;2022-10-17T05:51:39;10.70;;;5.00;;
7193;SDS011;3638;48.820;9.244;2022-10-17T05:54:07;7.80;;;4.73;;
7193;SDS011;3638;48.820;9.244;2022-10-17T05:56:34;7.17;;;5.10;;
7193;SDS011;3638;48.820;9.244;2022-10-17T05:59:01;7.57;;;5.10;;
7193;SDS011;3638;48.820;9.244;2022-10-17T06:01:30;8.37;;;5.23;;
7193;SDS011;3638;48.820;9.244;2022-10-17T06:03:57;13.20;;;5.87;;
7193;SDS011;3638;48.820;9.244;2022-10-17T06:06:23;8.50;;;5.07;;
7193;SDS011;3638;48.820;9.244;2022-10-17T06:08:50;9.53;;;4.90;;
7193;SDS011;3638;48.820;9.244;2022-10-17T06:11:19;13.60;;;6.17;;
7193;SDS011;3638;48.820;9.244;2022-10-17T06:13:45;13.67;;;5.63;;
7193;SDS011;3638;48.820;9.244;2022-10-17T06:16:12;13.67;;;5.63;;
7193;SDS011;3638;48.820;9.244;2022-10-17T06:18:39;11.43;;;5.57;;
7193;SDS011;3638;48.820;9.244;2022-10-17T06:21:07;12.60;;;5.83;;
7193;SDS011;3638;48.820;9.244;2022-10-17T06:23:36;12.93;;;5.80;;
7193;SDS011;3638;48.820;9.244;2022-10-17T06:26:04;10.63;;;5.60;;
7193;SDS011;3638;48.820;9.244;2022-10-17T06:28:33;11.80;;;5.67;;
7193;SDS011;3638;48.820;9.244;2022-10-17T06:31:03;9.67;;;4.83;;
7193;SDS011;3638;48.820;9.244;2022-10-17T06:33:31;7.13;;;4.90;;
7193;SDS011;3638;48.820;9.244;2022-10-17T06:35:58;8.97;;;5.00;;
7193;SDS011;3638;48.820;9.244;2022-10-17T06:38:25;10.70;;;5.00;;
7193;SDS011;3638;48.820;9.244;2022-10-17T06:40:52;10.83;;;5.27;;
7193;SDS011;3638;48.820;9.244;2022-10-17T06:43:21;7.60;;;4.57;;
7193;SDS011;3638;48.820;9.244;2022-10-17T06:45:50;9.87;;;4.83;;
7193;SDS011;3638;48.820;9.244;2022-10-17T06:48:16;9.60;;;4.17;;
7193;SDS011;3638;48.820;9.244;2022-10-17T06:50:44;6.90;;;4.40;;
7193;SDS011;3638;48.820;9.244;2022-10-17T06:53:11;8.40;;;4.43;;
7193;SDS011;3638;48.820;9.244;2022-10-17T06:55:37;13.73;;;4.40;;
7193;SDS011;3638;48.820;9.244;2022-10-17T06:58:04;8.20;;;4.10;;
7193;SDS011;3638;48.820;9.244;2022-10-17T07:00:32;7.53;;;3.93;;
7193;SDS011;3638;48.820;9.244;2022-10-17T07:03:00;7.00;;;4.20;;
7193;SDS011;3638;48.820;9.244;2022-10-17T07:05:27;9.83;;;4.30;;
7193;SDS011;3638;48.820;9.244;2022-10-17T07:07:54;6.70;;;3.97;;
7193;SDS011;3638;48.820;9.244;2022-10-17T07:10:21;5.63;;;4.20;;
7193;SDS011;3638;48.820;9.244;2022-10-17T07:12:48;7.63;;;4.73;;
7193;SDS011;3638;48.820;9.244;2022-10-17T07:15:15;7.87;;;4.87;;
7193;SDS011;3638;48.820;9.244;2022-10-17T07:17:42;6.47;;;4.50;;
7193;SDS011;3638;48.820;9.244;2022-10-17T07:20:10;6.83;;;4.50;;
7193;SDS011;3638;48.820;9.244;2022-10-17T07:22:37;8.33;;;4.10;;
7193;SDS011;3638;48.820;9.244;2022-10-17T07:25:05;7.60;;;4.53;;
7193;SDS011;3638;48.820;9.244;2022-10-17T07:27:34;8.05;;;4.28;;
7193;SDS011;3638;48.820;9.244;2022-10-17T07:30:00;7.07;;;3.80;;
7193;SDS011;3638;48.820;9.244;2022-10-17T07:32:27;6.32;;;3.45;;
7193;SDS011;3638;48.820;9.244;2022-10-17T07:34:54;8.60;;;3.67;;
7193;SDS011;3638;48.820;9.244;2022-10-17T07:37:23;7.68;;;3.95;;
7193;SDS011;3638;48.820;9.244;2022-10-17T07:39:50;5.43;;;3.80;;
7193;SDS011;3638;48.820;9.244;2022-10-17T07:42:17;8.52;;;3.33;;
7193;SDS011;3638;48.820;9.244;2022-10-17T07:44:44;5.78;;;3.35;;
7193;SDS011;3638;48.820;9.244;2022-10-17T07:47:11;7.03;;;3.47;;
7193;SDS011;3638;48.820;9.244;2022-10-17T07:49:38;4.55;;;3.03;;
7193;SDS011;3638;48.820;9.244;2022-10-17T07:52:08;5.07;;;3.22;;
7193;SDS011;3638;48.820;9.244;2022-10-17T07:54:36;3.50;;;3.20;;
7193;SDS011;3638;48.820;9.244;2022-10-17T07:57:04;3.70;;;2.92;;
7193;SDS011;3638;48.820;9.244;2022-10-17T07:59:31;5.05;;;2.67;;
7193;SDS011;3638;48.820;9.244;2022-10-17T08:01:59;5.30;;;3.20;;
7193;SDS011;3638;48.820;9.244;2022-10-17T08:04:26;4.38;;;2.75;;
7193;SDS011;3638;48.820;9.244;2022-10-17T08:06:54;3.58;;;3.00;;
7193;SDS011;3638;48.820;9.244;2022-10-17T08:09:21;6.13;;;3.22;;
7193;SDS011;3638;48.820;9.244;2022-10-17T08:11:49;3.00;;;2.70;;
7193;SDS011;3638;48.820;9.244;2022-10-17T08:14:16;5.47;;;3.20;;
7193;SDS011;3638;48.820;9.244;2022-10-17T08:16:43;3.13;;;2.80;;
7193;SDS011;3638;48.820;9.244;2022-10-17T08:19:10;3.25;;;2.90;;
7193;SDS011;3638;48.820;9.244;2022-10-17T08:21:37;3.80;;;2.67;;
7193;SDS011;3638;48.820;9.244;2022-10-17T08:24:05;3.30;;;2.42;;
7193;SDS011;3638;48.820;9.244;2022-10-17T08:26:32;5.20;;;2.60;;
7193;SDS011;3638;48.820;9.244;2022-10-17T08:29:00;6.40;;;2.70;;
7193;SDS011;3638;48.820;9.244;2022-10-17T08:31:27;2.95;;;2.40;;
7193;SDS011;3638;48.820;9.244;2022-10-17T08:33:54;4.13;;;2.78;;
7193;SDS011;3638;48.820;9.244;2022-10-17T08:36:21;2.97;;;2.30;;
7193;SDS011;3638;48.820;9.244;2022-10-17T08:38:48;6.38;;;2.75;;
7193;SDS011;3638;48.820;9.244;2022-10-17T08:41:19;5.47;;;2.70;;
7193;SDS011;3638;48.820;9.244;2022-10-17T08:44:07;2.85;;;2.35;;
7193;SDS011;3638;48.820;9.244;2022-10-17T08:46:45;5.18;;;2.67;;
7193;SDS011;3638;48.820;9.244;2022-10-17T08:49:16;5.47;;;2.42;;
7193;SDS011;3638;48.820;9.244;2022-10-17T08:51:50;5.82;;;2.70;;
7193;SDS011;3638;48.820;9.244;2022-10-17T08:54:26;6.82;;;2.60;;
7193;SDS011;3638;48.820;9.244;2022-10-17T08:57:07;5.85;;;2.40;;
7193;SDS011;3638;48.820;9.244;2022-10-17T08:59:40;3.95;;;2.50;;
7193;SDS011;3638;48.820;9.244;2022-10-17T09:02:20;3.75;;;2.15;;
7193;SDS011;3638;48.820;9.244;2022-10-17T09:05:14;4.22;;;2.42;;
7193;SDS011;3638;48.820;9.244;2022-10-17T09:07:59;4.07;;;2.55;;
7193;SDS011;3638;48.820;9.244;2022-10-17T09:10:37;5.53;;;2.10;;
7193;SDS011;3638;48.820;9.244;2022-10-17T09:13:21;4.28;;;2.38;;
7193;SDS011;3638;48.820;9.244;2022-10-17T09:16:07;2.85;;;2.15;;
7193;SDS011;3638;48.820;9.244;2022-10-17T09:18:52;3.72;;;2.10;;
7193;SDS011;3638;48.820;9.244;2022-10-17T09:21:31;2.42;;;2.05;;
7193;SDS011;3638;48.820;9.244;2022-10-17T09:24:08;2.78;;;2.33;;
7193;SDS011;3638;48.820;9.244;2022-10-17T09:26:43;2.53;;;2.25;;
7193;SDS011;3638;48.820;9.244;2022-10-17T09:29:14;2.58;;;2.03;;
7193;SDS011;3638;48.820;9.244;2022-10-17T09:31:48;3.00;;;2.20;;
7193;SDS011;3638;48.820;9.244;2022-10-17T09:34:23;2.90;;;2.08;;
7193;SDS011;3638;48.820;9.244;2022-10-17T09:36:53;3.20;;;2.42;;
7193;SDS011;3638;48.820;9.244;2022-10-17T09:39:22;4.63;;;2.47;;
7193;SDS011;3638;48.820;9.244;2022-10-17T09:41:51;2.60;;;2.40;;
7193;SDS011;3638;48.820;9.244;2022-10-17T09:44:21;5.05;;;2.38;;
7193;SDS011;3638;48.820;9.244;2022-10-17T09:46:58;5.80;;;2.38;;
7193;SDS011;3638;48.820;9.244;2022-10-17T09:49:44;4.78;;;2.63;;
7193;SDS011;3638;48.820;9.244;2022-10-17T09:52:13;4.10;;;2.60;;
7193;SDS011;3638;48.820;9.244;2022-10-17T09:54:44;5.40;;;2.47;;
7193;SDS011;3638;48.820;9.244;2022-10-17T09:57:15;6.40;;;2.65;;
7193;SDS011;3638;48.820;9.244;2022-10-17T09:59:45;7.00;;;2.97;;
7193;SDS011;3638;48.820;9.244;2022-10-17T10:02:17;7.88;;;2.50;;
7193;SDS011;3638;48.820;9.244;2022-10-17T10:04:53;5.85;;;2.55;;
7193;SDS011;3638;48.820;9.244;2022-10-17T10:07:27;4.97;;;2.47;;
7193;SDS011;3638;48.820;9.244;2022-10-17T10:09:56;4.00;;;2.70;;
7193;SDS011;3638;48.820;9.244;2022-10-17T10:12:25;8.90;;;2.60;;
7193;SDS011;3638;48.820;9.244;2022-10-17T10:14:54;5.82;;;2.50;;
7193;SDS011;3638;48.820;9.244;2022-10-17T10:17:27;4.47;;;2.40;;
7193;SDS011;3638;48.820;9.244;2022-10-17T10:23:03;6.60;;;2.50;;
7193;SDS011;3638;48.820;9.244;2022-10-17T10:25:37;7.90;;;2.92;;
7193;SDS011;3638;48.820;9.244;2022-10-17T10:28:22;3.72;;;2.65;;
7193;SDS011;3638;48.820;9.244;2022-10-17T10:30:53;4.20;;;2.50;;
7193;SDS011;3638;48.820;9.244;2022-10-17T10:33:26;5.88;;;2.53;;
7193;SDS011;3638;48.820;9.244;2022-10-17T10:35:55;7.35;;;2.97;;
7193;SDS011;3638;48.820;9.244;2022-10-17T10:38:25;10.00;;;2.70;;
7193;SDS011;3638;48.820;9.244;2022-10-17T10:40:53;3.38;;;2.28;;
7193;SDS011;3638;48.820;9.244;2022-10-17T10:43:34;4.32;;;2.50;;
7193;SDS011;3638;48.820;9.244;2022-10-17T10:46:04;9.55;;;2.97;;
7193;SDS011;3638;48.820;9.244;2022-10-17T10:48:50;15.23;;;2.75;;
7193;SDS011;3638;48.820;9.244;2022-10-17T10:51:20;5.22;;;2.85;;
7193;SDS011;3638;48.820;9.244;2022-10-17T10:53:55;5.35;;;2.90;;
7193;SDS011;3638;48.820;9.244;2022-10-17T10:56:30;4.60;;;2.65;;
7193;SDS011;3638;48.820;9.244;2022-10-17T10:59:03;8.50;;;2.85;;
7193;SDS011;3638;48.820;9.244;2022-10-17T11:01:40;3.05;;;2.55;;
7193;SDS011;3638;48.820;9.244;2022-10-17T11:04:22;5.00;;;2.67;;
7193;SDS011;3638;48.820;9.244;2022-10-17T11:06:57;3.65;;;2.20;;
7193;SDS011;3638;48.820;9.244;2022-10-17T11:09:31;6.00;;;2.72;;
7193;SDS011;3638;48.820;9.244;2022-10-17T11:12:11;10.98;;;3.03;;
7193;SDS011;3638;48.820;9.244;2022-10-17T11:14:44;4.45;;;2.50;;
7193;SDS011;3638;48.820;9.244;2022-10-17T11:17:20;3.70;;;2.40;;
7193;SDS011;3638;48.820;9.244;2022-10-17T11:20:00;3.72;;;2.38;;
7193;SDS011;3638;48.820;9.244;2022-10-17T11:22:40;4.90;;;2.35;;
7193;SDS011;3638;48.820;9.244;2022-10-17T11:25:14;2.58;;;2.38;;
7193;SDS011;3638;48.820;9.244;2022-10-17T11:27:56;6.32;;;2.63;;
7193;SDS011;3638;48.820;9.244;2022-10-17T11:30:24;4.53;;;2.50;;
7193;SDS011;3638;48.820;9.244;2022-10-17T11:32:56;7.07;;;2.65;;
7193;SDS011;3638;48.820;9.244;2022-10-17T11:35:28;4.55;;;2.20;;
7193;SDS011;3638;48.820;9.244;2022-10-17T11:38:01;6.55;;;2.53;;
7193;SDS011;3638;48.820;9.244;2022-10-17T11:40:38;3.90;;;2.40;;
7193;SDS011;3638;48.820;9.244;2022-10-17T11:43:09;5.32;;;2.58;;
7193;SDS011;3638;48.820;9.244;2022-10-17T11:45:41;2.30;;;2.10;;
7193;SDS011;3638;48.820;9.244;2022-10-17T11:48:12;6.47;;;2.30;;
7193;SDS011;3638;48.820;9.244;2022-10-17T11:50:46;7.07;;;2.50;;
7193;SDS011;3638;48.820;9.244;2022-10-17T11:53:19;3.13;;;2.42;;
7193;SDS011;3638;48.820;9.244;2022-10-17T11:55:48;4.18;;;2.17;;
7193;SDS011;3638;48.820;9.244;2022-10-17T11:58:22;3.17;;;2.00;;
7193;SDS011;3638;48.820;9.244;2022-10-17T12:00:58;5.00;;;2.30;;
7193;SDS011;3638;48.820;9.244;2022-10-17T12:03:38;3.70;;;2.00;;
7193;SDS011;3638;48.820;9.244;2022-10-17T12:06:22;4.95;;;2.30;;
7193;SDS011;3638;48.820;9.244;2022-10-17T12:09:06;6.45;;;2.88;;
7193;SDS011;3638;48.820;9.244;2022-10-17T12:11:43;4.85;;;2.83;;
7193;SDS011;3638;48.820;9.244;2022-10-17T12:14:34;3.30;;;2.20;;
7193;SDS011;3638;48.820;9.244;2022-10-17T12:17:04;5.47;;;2.20;;
7193;SDS011;3638;48.820;9.244;2022-10-17T12:19:47;3.35;;;2.10;;
7193;SDS011;3638;48.820;9.244;2022-10-17T12:22:20;3.13;;;1.98;;
7193;SDS011;3638;48.820;9.244;2022-10-17T12:24:56;5.03;;;2.10;;
7193;SDS011;3638;48.820;9.244;2022-10-17T12:27:36;4.85;;;1.90;;
7193;SDS011;3638;48.820;9.244;2022-10-17T12:30:14;3.65;;;2.08;;
7193;SDS011;3638;48.820;9.244;2022-10-17T12:33:03;4.47;;;2.17;;
7193;SDS011;3638;48.820;9.244;2022-10-17T12:35:45;2.67;;;1.85;;
7193;SDS011;3638;48.820;9.244;2022-10-17T12:38:17;3.53;;;1.90;;
7193;SDS011;3638;48.820;9.244;2022-10-17T12:43:48;2.88;;;2.00;;
7193;SDS011;3638;48.820;9.244;2022-10-17T12:49:19;2.92;;;2.00;;
7193;SDS011;3638;48.820;9.244;2022-10-17T12:52:15;4.38;;;2.00;;
7193;SDS011;3638;48.820;9.244;2022-10-17T12:54:52;3.83;;;2.08;;
7193;SDS011;3638;48.820;9.244;2022-10-17T12:57:24;3.83;;;1.95;;
7193;SDS011;3638;48.820;9.244;2022-10-17T13:00:00;3.53;;;1.88;;
7193;SDS011;3638;48.820;9.244;2022-10-17T13:02:30;4.25;;;2.10;;
7193;SDS011;3638;48.820;9.244;2022-10-17T13:05:03;6.53;;;2.10;;
7193;SDS011;3638;48.820;9.244;2022-10-17T13:07:36;4.40;;;2.22;;
7193;SDS011;3638;48.820;9.244;2022-10-17T13:10:16;2.22;;;1.83;;
7193;SDS011;3638;48.820;9.244;2022-10-17T13:12:46;4.97;;;1.95;;
7193;SDS011;3638;48.820;9.244;2022-10-17T13:15:15;3.42;;;2.05;;
7193;SDS011;3638;48.820;9.244;2022-10-17T13:17:44;5.05;;;2.28;;
7193;SDS011;3638;48.820;9.244;2022-10-17T13:20:23;6.35;;;2.50;;
7193;SDS011;3638;48.820;9.244;2022-10-17T13:22:55;3.22;;;2.15;;
7193;SDS011;3638;48.820;9.244;2022-10-17T13:25:24;3.55;;;2.40;;
7193;SDS011;3638;48.820;9.244;2022-10-17T13:28:03;4.68;;;2.35;;
7193;SDS011;3638;48.820;9.244;2022-10-17T13:30:35;5.18;;;2.55;;
7193;SDS011;3638;48.820;9.244;2022-10-17T13:33:03;4.78;;;2.13;;
7193;SDS011;3638;48.820;9.244;2022-10-17T13:35:54;4.95;;;2.30;;
7193;SDS011;3638;48.820;9.244;2022-10-17T13:38:20;5.82;;;2.47;;
7193;SDS011;3638;48.820;9.244;2022-10-17T13:40:54;5.72;;;2.25;;
7193;SDS011;3638;48.820;9.244;2022-10-17T13:43:21;6.80;;;2.30;;
7193;SDS011;3638;48.820;9.244;2022-10-17T13:45:50;5.18;;;2.35;;
7193;SDS011;3638;48.820;9.244;2022-10-17T13:48:19;4.10;;;2.25;;
7193;SDS011;3638;48.820;9.244;2022-10-17T13:50:49;4.40;;;2.15;;
7193;SDS011;3638;48.820;9.244;2022-10-17T13:53:21;6.00;;;2.42;;
7193;SDS011;3638;48.820;9.244;2022-10-17T13:55:52;8.07;;;2.55;;
7193;SDS011;3638;48.820;9.244;2022-10-17T13:58:24;4.07;;;2.38;;
7193;SDS011;3638;48.820;9.244;2022-10-17T14:00:52;4.47;;;2.40;;
7193;SDS011;3638;48.820;9.244;2022-10-17T14:03:19;3.15;;;2.13;;
7193;SDS011;3638;48.820;9.244;2022-10-17T14:05:57;4.93;;;2.35;;
7193;SDS011;3638;48.820;9.244;2022-10-17T14:08:38;8.10;;;2.65;;
7193;SDS011;3638;48.820;9.244;2022-10-17T14:11:17;2.88;;;2.30;;
7193;SDS011;3638;48.820;9.244;2022-10-17T14:13:50;5.85;;;2.10;;
7193;SDS011;3638;48.820;9.244;2022-10-17T14:16:20;4.20;;;2.30;;
7193;SDS011;3638;48.820;9.244;2022-10-17T14:18:49;4.18;;;2.40;;
7193;SDS011;3638;48.820;9.244;2022-10-17T14:21:19;5.90;;;2.30;;
7193;SDS011;3638;48.820;9.244;2022-10-17T14:23:49;2.88;;;2.30;;
7193;SDS011;3638;48.820;9.244;2022-10-17T14:26:19;4.13;;;2.35;;
7193;SDS011;3638;48.820;9.244;2022-10-17T14:28:49;4.20;;;2.25;;
7193;SDS011;3638;48.820;9.244;2022-10-17T14:31:31;4.85;;;2.22;;
7193;SDS011;3638;48.820;9.244;2022-10-17T14:33:59;4.95;;;2.25;;
7193;SDS011;3638;48.820;9.244;2022-10-17T14:36:29;5.13;;;2.20;;
7193;SDS011;3638;48.820;9.244;2022-10-17T14:39:00;5.03;;;2.28;;
7193;SDS011;3638;48.820;9.244;2022-10-17T14:41:30;3.72;;;2.17;;
7193;SDS011;3638;48.820;9.244;2022-10-17T14:44:00;5.70;;;2.60;;
7193;SDS011;3638;48.820;9.244;2022-10-17T14:46:30;4.75;;;2.50;;
7193;SDS011;3638;48.820;9.244;2022-10-17T14:49:02;4.70;;;2.13;;
7193;SDS011;3638;48.820;9.244;2022-10-17T14:51:31;5.47;;;2.35;;
7193;SDS011;3638;48.820;9.244;2022-10-17T14:54:00;5.32;;;2.20;;
7193;SDS011;3638;48.820;9.244;2022-10-17T14:56:36;6.43;;;2.28;;
7193;SDS011;3638;48.820;9.244;2022-10-17T14:59:06;4.10;;;2.25;;
7193;SDS011;3638;48.820;9.244;2022-10-17T15:01:35;4.35;;;2.17;;
7193;SDS011;3638;48.820;9.244;2022-10-17T15:04:02;4.80;;;2.30;;
7193;SDS011;3638;48.820;9.244;2022-10-17T15:06:31;3.08;;;2.13;;
7193;SDS011;3638;48.820;9.244;2022-10-17T15:08:59;3.75;;;2.10;;
7193;SDS011;3638;48.820;9.244;2022-10-17T15:11:27;5.25;;;2.35;;
7193;SDS011;3638;48.820;9.244;2022-10-17T15:13:55;2.50;;;2.20;;
7193;SDS011;3638;48.820;9.244;2022-10-17T15:16:22;3.72;;;2.30;;
7193;SDS011;3638;48.820;9.244;2022-10-17T15:18:51;4.53;;;2.65;;
7193;SDS011;3638;48.820;9.244;2022-10-17T15:21:19;6.15;;;2.75;;
7193;SDS011;3638;48.820;9.244;2022-10-17T15:23:49;3.03;;;2.20;;
7193;SDS011;3638;48.820;9.244;2022-10-17T15:26:17;3.58;;;2.00;;
7193;SDS011;3638;48.820;9.244;2022-10-17T15:28:45;5.97;;;2.28;;
7193;SDS011;3638;48.820;9.244;2022-10-17T15:31:15;5.07;;;2.47;;
7193;SDS011;3638;48.820;9.244;2022-10-17T15:33:44;4.38;;;2.40;;
7193;SDS011;3638;48.820;9.244;2022-10-17T15:36:18;3.88;;;2.50;;
7193;SDS011;3638;48.820;9.244;2022-10-17T15:38:49;4.75;;;2.60;;
7193;SDS011;3638;48.820;9.244;2022-10-17T15:41:17;4.40;;;2.28;;
7193;SDS011;3638;48.820;9.244;2022-10-17T15:43:45;3.90;;;2.30;;
7193;SDS011;3638;48.820;9.244;2022-10-17T15:46:13;5.15;;;2.58;;
7193;SDS011;3638;48.820;9.244;2022-10-17T15:48:45;3.40;;;2.30;;